createdAt,value
2018-12-09T00:00:26.721Z,9.40
2018-12-09T00:02:54.271Z,9.30
2018-12-09T00:05:21.815Z,9.30
2018-12-09T00:07:49.563Z,9.20
2018-12-09T00:12:45.153Z,9.10
2018-12-09T00:15:12.948Z,9.10
2018-12-09T00:17:40.548Z,9.10
2018-12-09T00:20:08.109Z,9.00
2018-12-09T00:22:35.661Z,9.00
2018-12-09T00:25:03.454Z,9.10
2018-12-09T00:27:30.970Z,9.10
2018-12-09T00:29:59.428Z,9.10
2018-12-09T00:32:27.123Z,9.10
2018-12-09T00:34:54.690Z,9.10
2018-12-09T00:37:22.330Z,9.20
2018-12-09T00:39:49.972Z,9.20
2018-12-09T00:42:17.594Z,9.20
2018-12-09T00:44:45.171Z,9.20
2018-12-09T00:54:37.499Z,9.40
2018-12-09T00:57:05.235Z,9.40
2018-12-09T01:02:05.203Z,9.40
2018-12-09T01:07:00.791Z,9.40
2018-12-09T01:09:28.588Z,9.40
2018-12-09T01:11:56.252Z,9.50
2018-12-09T01:14:23.820Z,9.50
2018-12-09T01:16:52.715Z,9.50
2018-12-09T01:24:16.354Z,9.50
2018-12-09T01:26:44.433Z,9.50
2018-12-09T01:29:11.929Z,9.40
2018-12-09T01:31:39.601Z,9.40
2018-12-09T01:34:07.238Z,9.40
2018-12-09T01:48:52.432Z,9.30
2018-12-09T01:54:09.525Z,9.20
2018-12-09T01:56:37.678Z,9.20
2018-12-09T02:01:33.139Z,9.10
2018-12-09T02:04:00.668Z,9.10
2018-12-09T02:06:28.348Z,9.00
2018-12-09T02:08:55.851Z,9.10
2018-12-09T02:13:51.630Z,9.10
2018-12-09T02:16:19.366Z,9.20
2018-12-09T02:21:16.349Z,9.10
2018-12-09T02:26:13.075Z,9.10
2018-12-09T02:31:11.941Z,9.00
2018-12-09T02:33:39.459Z,8.90
2018-12-09T02:36:07.080Z,8.90
2018-12-09T02:38:35.243Z,8.80
2018-12-09T02:41:03.253Z,8.80
2018-12-09T02:43:30.847Z,8.80
2018-12-09T02:45:58.490Z,8.70
2018-12-09T02:48:25.982Z,8.70
2018-12-09T02:50:53.789Z,8.70
2018-12-09T02:53:21.378Z,8.70
2018-12-09T02:55:49.513Z,8.70
2018-12-09T02:58:17.111Z,8.60
2018-12-09T03:00:45.311Z,8.60
2018-12-09T03:03:13.015Z,8.60
2018-12-09T03:05:40.747Z,8.60
2018-12-09T03:08:09.066Z,8.60
2018-12-09T03:10:37.169Z,8.50
2018-12-09T03:15:32.811Z,8.50
2018-12-09T03:18:00.384Z,8.50
2018-12-09T03:20:28.003Z,8.50
2018-12-09T03:22:55.723Z,8.50
2018-12-09T03:25:23.322Z,8.40
2018-12-09T03:27:51.260Z,8.50
2018-12-09T03:30:18.920Z,8.40
2018-12-09T03:32:46.505Z,8.50
2018-12-09T03:35:14.089Z,8.50
2018-12-09T03:37:41.687Z,8.50
2018-12-09T03:40:09.800Z,8.50
2018-12-09T03:42:37.396Z,8.50
2018-12-09T03:45:05.284Z,8.60
2018-12-09T03:47:32.862Z,8.60
2018-12-09T03:50:00.541Z,8.60
2018-12-09T03:52:28.123Z,8.60
2018-12-09T03:54:55.661Z,8.70
2018-12-09T03:57:23.790Z,8.70
2018-12-09T03:59:51.401Z,8.70
2018-12-09T04:02:18.889Z,8.70
2018-12-09T04:04:46.700Z,8.70
2018-12-09T04:07:14.373Z,8.70
2018-12-09T04:09:41.917Z,8.70
2018-12-09T04:12:09.466Z,8.70
2018-12-09T04:14:36.961Z,8.70
2018-12-09T04:17:04.510Z,8.70
2018-12-09T04:19:32.054Z,8.60
2018-12-09T04:21:59.732Z,8.60
2018-12-09T04:24:27.206Z,8.60
2018-12-09T04:26:54.855Z,8.60
2018-12-09T04:29:22.638Z,8.60
2018-12-09T04:31:51.088Z,8.50
2018-12-09T04:34:18.679Z,8.50
2018-12-09T04:36:46.828Z,8.50
2018-12-09T04:39:14.394Z,8.60
2018-12-09T04:41:42.007Z,8.60
2018-12-09T04:44:09.952Z,8.60
2018-12-09T04:46:37.582Z,8.50
2018-12-09T04:49:05.023Z,8.50
2018-12-09T04:51:43.745Z,8.50
2018-12-09T04:56:39.669Z,8.50
2018-12-09T04:59:16.584Z,8.50
2018-12-09T05:01:44.638Z,8.40
2018-12-09T05:04:12.446Z,8.50
2018-12-09T05:06:40.022Z,8.50
2018-12-09T05:09:07.652Z,8.50
2018-12-09T05:11:35.870Z,8.50
2018-12-09T05:14:03.873Z,8.40
2018-12-09T05:16:31.439Z,8.40
2018-12-09T05:21:26.562Z,8.40
2018-12-09T05:23:54.059Z,8.30
2018-12-09T05:26:22.467Z,8.30
2018-12-09T05:28:50.026Z,8.30
2018-12-09T05:31:18.227Z,8.30
2018-12-09T05:33:45.783Z,8.30
2018-12-09T05:38:41.363Z,8.40
2018-12-09T05:41:08.885Z,8.40
2018-12-09T05:43:36.355Z,8.40
2018-12-09T05:46:04.129Z,8.30
2018-12-09T05:50:59.645Z,8.30
2018-12-09T05:53:27.158Z,8.30
2018-12-09T05:55:54.990Z,8.30
2018-12-09T05:58:29.098Z,8.30
2018-12-09T06:00:56.586Z,8.20
2018-12-09T06:03:24.333Z,8.20
2018-12-09T06:05:51.832Z,8.00
2018-12-09T06:08:19.414Z,8.00
2018-12-09T06:10:47.137Z,8.00
2018-12-09T06:13:14.743Z,8.00
2018-12-09T06:15:43.535Z,8.00
2018-12-09T06:18:11.220Z,8.00
2018-12-09T06:20:38.855Z,8.00
2018-12-09T06:23:06.580Z,8.00
2018-12-09T06:25:34.098Z,8.10
2018-12-09T06:30:29.667Z,8.10
2018-12-09T06:35:25.278Z,8.10
2018-12-09T06:37:52.789Z,8.10
2018-12-09T06:40:20.824Z,8.10
2018-12-09T06:42:48.414Z,8.20
2018-12-09T06:45:15.889Z,8.20
2018-12-09T06:52:39.919Z,8.20
2018-12-09T06:55:08.738Z,8.20
2018-12-09T06:57:36.362Z,8.30
2018-12-09T07:00:06.120Z,8.30
2018-12-09T07:02:34.215Z,8.30
2018-12-09T07:05:01.853Z,8.30
2018-12-09T07:07:29.543Z,8.30
2018-12-09T07:09:57.071Z,8.30
2018-12-09T07:12:24.574Z,8.40
2018-12-09T07:14:52.096Z,8.40
2018-12-09T07:17:19.596Z,8.40
2018-12-09T07:19:48.495Z,8.40
2018-12-09T07:22:15.980Z,8.40
2018-12-09T07:24:43.567Z,8.50
2018-12-09T07:27:11.467Z,8.50
2018-12-09T07:29:39.102Z,8.50
2018-12-09T07:32:06.677Z,8.40
2018-12-09T07:34:34.791Z,8.40
2018-12-09T07:37:02.330Z,8.40
2018-12-09T07:39:29.959Z,8.50
2018-12-09T07:41:57.667Z,8.50
2018-12-09T07:44:25.630Z,8.50
2018-12-09T07:46:53.280Z,8.40
2018-12-09T07:49:20.783Z,8.50
2018-12-09T07:51:48.412Z,8.40
2018-12-09T07:54:16.059Z,8.40
2018-12-09T07:56:43.791Z,8.40
2018-12-09T07:59:11.676Z,8.50
2018-12-09T08:01:39.610Z,8.60
2018-12-09T08:04:07.368Z,8.60
2018-12-09T08:06:35.009Z,8.60
2018-12-09T08:24:36.148Z,8.60
2018-12-09T08:27:04.340Z,8.40
2018-12-09T08:34:27.990Z,8.50
2018-12-09T08:36:56.276Z,8.50
2018-12-09T08:39:24.514Z,8.50
2018-12-09T08:41:52.189Z,8.50
2018-12-09T08:44:19.879Z,8.50
2018-12-09T08:46:47.341Z,8.50
2018-12-09T08:49:15.057Z,8.60
2018-12-09T08:51:42.587Z,8.60
2018-12-09T08:54:10.193Z,8.60
2018-12-09T08:56:37.803Z,8.60
2018-12-09T08:59:05.803Z,8.60
2018-12-09T09:01:35.931Z,8.70
2018-12-09T09:04:03.662Z,8.70
2018-12-09T09:06:31.188Z,8.60
2018-12-09T09:08:58.686Z,8.60
2018-12-09T09:11:26.381Z,8.70
2018-12-09T09:13:53.959Z,8.70
2018-12-09T09:16:21.510Z,8.80
2018-12-09T09:18:49.067Z,8.80
2018-12-09T09:21:16.709Z,8.80
2018-12-09T09:23:44.355Z,8.90
2018-12-09T09:26:12.127Z,8.80
2018-12-09T09:28:39.680Z,8.90
2018-12-09T09:31:07.164Z,8.90
2018-12-09T09:33:35.656Z,8.90
2018-12-09T09:36:03.176Z,8.90
2018-12-09T09:38:30.706Z,8.90
2018-12-09T09:40:59.027Z,8.80
2018-12-09T09:43:27.095Z,8.80
2018-12-09T09:45:54.722Z,8.80
2018-12-09T09:50:49.948Z,8.90
2018-12-09T09:53:18.068Z,9.00
2018-12-09T09:55:45.960Z,9.00
2018-12-09T09:58:13.585Z,9.00
2018-12-09T10:00:41.925Z,9.00
2018-12-09T10:03:10.036Z,9.00
2018-12-09T10:05:37.874Z,9.00
2018-12-09T10:08:05.357Z,9.00
2018-12-09T10:10:33.132Z,9.10
2018-12-09T10:13:01.255Z,9.10
2018-12-09T10:15:29.858Z,9.10
2018-12-09T10:17:57.484Z,9.10
2018-12-09T10:20:25.778Z,9.20
2018-12-09T10:22:53.964Z,9.20
2018-12-09T10:25:21.637Z,9.30
2018-12-09T10:27:49.122Z,9.30
2018-12-09T10:32:44.060Z,9.40
2018-12-09T10:35:11.689Z,9.30
2018-12-09T10:37:39.942Z,9.30
2018-12-09T10:40:07.579Z,9.30
2018-12-09T10:42:35.379Z,9.30
2018-12-09T10:45:04.138Z,9.30
2018-12-09T10:47:31.615Z,9.20
2018-12-09T11:03:03.801Z,9.20
2018-12-09T11:05:31.939Z,9.20
2018-12-09T11:08:01.059Z,9.10
2018-12-09T11:10:28.600Z,9.20
2018-12-09T11:12:56.119Z,9.20
2018-12-09T11:15:23.719Z,9.20
2018-12-09T11:17:51.259Z,9.20
2018-12-09T11:22:46.598Z,9.20
2018-12-09T11:25:14.410Z,9.30
2018-12-09T11:27:42.261Z,9.20
2018-12-09T11:30:17.265Z,9.30
2018-12-09T11:35:12.774Z,9.40
2018-12-09T11:37:40.409Z,9.40
2018-12-09T11:40:08.376Z,9.40
2018-12-09T11:45:03.650Z,9.60
2018-12-09T11:47:31.519Z,9.70
2018-12-09T11:49:59.393Z,9.80
2018-12-09T11:52:27.640Z,10.00
2018-12-09T11:54:55.330Z,10.10
2018-12-09T11:57:23.508Z,10.10
2018-12-09T11:59:51.622Z,10.10
2018-12-09T12:02:20.878Z,10.20
2018-12-09T12:04:48.414Z,10.50
2018-12-09T12:07:16.055Z,10.50
2018-12-09T12:09:44.323Z,10.40
2018-12-09T12:12:12.934Z,10.30
2018-12-09T12:14:41.276Z,10.40
2018-12-09T12:17:09.323Z,10.40
2018-12-09T12:19:36.893Z,10.50
2018-12-09T12:22:05.381Z,10.70
2018-12-09T12:24:32.909Z,10.70
2018-12-09T12:27:01.201Z,10.70
2018-12-09T12:29:29.677Z,10.50
2018-12-09T12:34:25.417Z,10.30
2018-12-09T12:36:53.093Z,10.30
2018-12-09T12:39:20.717Z,10.30
2018-12-09T12:41:48.431Z,10.20
2018-12-09T12:44:16.186Z,10.30
2018-12-09T12:46:44.785Z,10.40
2018-12-09T12:49:12.469Z,10.40
2018-12-09T12:51:40.452Z,10.40
2018-12-09T12:54:08.897Z,10.30
2018-12-09T12:56:37.255Z,10.20
2018-12-09T13:01:34.110Z,10.20
2018-12-09T13:04:01.766Z,10.20
2018-12-09T13:06:30.375Z,10.20
2018-12-09T13:08:58.073Z,10.20
2018-12-09T13:11:25.736Z,10.10
2018-12-09T13:13:53.930Z,10.10
2018-12-09T13:16:21.958Z,10.10
2018-12-09T13:31:54.158Z,10.10
2018-12-09T13:34:22.848Z,9.20
2018-12-09T13:36:50.596Z,9.10
2018-12-09T13:57:18.705Z,8.90
2018-12-09T13:59:46.474Z,8.60
2018-12-09T14:02:14.594Z,8.70
2018-12-09T14:04:42.321Z,8.70
2018-12-09T14:07:10.327Z,8.70
2018-12-09T14:09:37.997Z,8.80
2018-12-09T14:12:05.548Z,8.80
2018-12-09T14:14:38.947Z,8.80
2018-12-09T14:17:07.170Z,8.80
2018-12-09T14:19:34.774Z,8.80
2018-12-09T14:22:03.107Z,8.80
2018-12-09T14:24:30.959Z,8.80
2018-12-09T14:29:28.024Z,8.70
2018-12-09T14:31:55.953Z,8.70
2018-12-09T14:34:23.652Z,8.60
2018-12-09T14:36:51.746Z,8.60
2018-12-09T14:39:20.741Z,8.60
2018-12-09T14:41:49.055Z,8.60
2018-12-09T14:44:16.755Z,8.50
2018-12-09T14:46:44.335Z,8.50
2018-12-09T14:49:13.012Z,8.60
2018-12-09T14:51:42.655Z,8.50
2018-12-09T14:54:10.334Z,8.50
2018-12-09T14:59:05.490Z,8.60
2018-12-09T15:01:35.492Z,8.60
2018-12-09T15:04:34.588Z,8.60
2018-12-09T15:07:02.295Z,8.60
2018-12-09T15:09:30.109Z,8.60
2018-12-09T15:11:57.659Z,8.60
2018-12-09T15:14:25.194Z,8.60
2018-12-09T15:16:53.169Z,8.70
2018-12-09T15:19:21.500Z,8.70
2018-12-09T15:21:49.171Z,8.70
2018-12-09T15:24:16.899Z,8.70
2018-12-09T15:26:44.485Z,8.80
2018-12-09T15:29:12.039Z,8.80
2018-12-09T15:31:39.690Z,8.70
2018-12-09T15:34:07.494Z,8.70
2018-12-09T15:36:35.064Z,8.70
2018-12-09T15:39:04.363Z,8.70
2018-12-09T15:41:31.963Z,8.70
2018-12-09T15:43:59.521Z,8.70
2018-12-09T15:46:27.010Z,8.70
2018-12-09T15:48:56.191Z,8.80
2018-12-09T15:51:23.913Z,8.70
2018-12-09T15:53:52.070Z,8.80
2018-12-09T15:56:19.656Z,8.70
2018-12-09T16:01:14.829Z,8.70
2018-12-09T16:03:46.059Z,8.70
2018-12-09T16:08:41.169Z,8.60
2018-12-09T16:13:36.510Z,8.60
2018-12-09T16:16:04.101Z,8.60
2018-12-09T16:18:31.666Z,8.80
2018-12-09T16:20:59.442Z,8.90
2018-12-09T16:23:27.127Z,8.90
2018-12-09T16:25:54.733Z,8.80
2018-12-09T16:28:22.332Z,8.90
2018-12-09T16:33:18.001Z,8.90
2018-12-09T16:35:47.547Z,9.00
2018-12-09T16:38:15.399Z,9.10
2018-12-09T16:40:43.035Z,9.10
2018-12-09T16:43:11.733Z,9.00
2018-12-09T16:45:39.879Z,8.90
2018-12-09T16:48:07.454Z,8.80
2018-12-09T16:50:36.593Z,8.80
2018-12-09T16:53:10.859Z,8.70
2018-12-09T16:55:47.510Z,8.60
2018-12-09T16:58:15.095Z,8.50
2018-12-09T17:05:38.845Z,8.40
2018-12-09T17:08:06.536Z,8.40
2018-12-09T17:10:35.320Z,8.30
2018-12-09T17:13:03.117Z,8.30
2018-12-09T17:15:31.672Z,8.40
2018-12-09T17:23:04.823Z,8.40
2018-12-09T17:28:06.264Z,8.40
2018-12-09T17:38:17.773Z,8.50
2018-12-09T17:40:47.222Z,8.50
2018-12-09T17:43:26.290Z,8.50
2018-12-09T17:46:01.531Z,8.40
2018-12-09T17:48:39.506Z,8.40
2018-12-09T17:51:14.534Z,8.30
2018-12-09T17:54:09.414Z,8.30
2018-12-09T18:10:29.481Z,8.50
2018-12-09T18:18:36.269Z,8.70
2018-12-09T18:32:27.962Z,8.90
2018-12-09T18:37:32.176Z,8.80
2018-12-09T18:40:06.241Z,8.70
2018-12-09T18:42:39.747Z,8.70
2018-12-09T18:47:46.131Z,8.60
2018-12-09T18:50:15.928Z,8.60
2018-12-09T18:52:45.596Z,8.60
2018-12-09T18:55:16.503Z,8.60
2018-12-09T18:57:48.259Z,8.60
2018-12-09T19:05:22.941Z,8.60
2018-12-09T19:15:40.001Z,8.50
2018-12-09T19:23:02.722Z,8.40
2018-12-09T19:25:32.094Z,8.40
2018-12-09T19:34:22.881Z,8.50
2018-12-09T19:39:30.448Z,8.40
2018-12-09T19:43:28.023Z,8.40
2018-12-09T19:45:57.518Z,8.30
2018-12-09T19:48:28.846Z,8.30
2018-12-09T19:50:59.058Z,8.40
2018-12-09T19:53:37.011Z,8.40
2018-12-09T20:03:53.830Z,8.40
2018-12-09T20:08:54.502Z,8.40
2018-12-09T20:13:52.451Z,8.40
2018-12-09T20:16:20.338Z,8.40
2018-12-09T20:18:47.894Z,8.40
2018-12-09T20:21:15.564Z,8.30
2018-12-09T20:23:43.142Z,8.30
2018-12-09T20:26:10.981Z,8.20
2018-12-09T20:33:37.149Z,8.10
2018-12-09T20:36:05.043Z,8.10
2018-12-09T20:38:35.417Z,8.10
2018-12-09T20:41:08.158Z,8.10
2018-12-09T20:43:38.078Z,8.20
2018-12-09T20:46:09.164Z,8.20
2018-12-09T20:58:50.150Z,8.00
2018-12-09T21:06:46.283Z,8.00
2018-12-09T21:09:24.460Z,7.90
2018-12-09T21:14:23.762Z,7.90
2018-12-09T21:16:54.497Z,7.90
2018-12-09T21:19:25.730Z,8.00
2018-12-09T21:30:25.796Z,7.90
2018-12-09T21:44:13.060Z,7.80
2018-12-09T21:46:40.939Z,7.80
2018-12-09T21:49:10.360Z,7.80
2018-12-09T21:56:33.058Z,7.90
2018-12-09T22:01:29.395Z,7.80
2018-12-09T22:03:56.965Z,7.70
2018-12-09T22:06:25.758Z,7.70
2018-12-09T22:11:23.173Z,7.60
2018-12-09T22:16:20.311Z,7.60
2018-12-09T22:18:48.819Z,7.60
2018-12-09T22:21:18.559Z,7.60
2018-12-09T22:23:46.569Z,7.60
2018-12-09T22:26:14.861Z,7.70
2018-12-09T22:28:42.910Z,7.70
2018-12-09T22:31:10.736Z,7.70
2018-12-09T22:33:39.071Z,7.70
2018-12-09T22:36:06.658Z,7.70
2018-12-09T22:38:34.473Z,7.70
2018-12-09T22:41:02.403Z,7.70
2018-12-09T22:43:29.994Z,7.70
2018-12-09T22:45:57.621Z,7.70
2018-12-09T22:48:25.246Z,7.60
2018-12-09T22:50:52.797Z,7.60
2018-12-09T22:53:21.188Z,7.60
2018-12-09T22:55:49.324Z,7.60
2018-12-09T22:58:16.885Z,7.60
2018-12-09T23:00:51.964Z,7.50
2018-12-09T23:03:20.739Z,7.60
2018-12-09T23:08:15.907Z,7.50
2018-12-09T23:10:43.924Z,7.50
2018-12-09T23:17:07.309Z,7.60
2018-12-09T23:19:34.931Z,7.50
2018-12-09T23:22:02.768Z,7.60
2018-12-09T23:24:30.646Z,7.60
2018-12-09T23:29:25.842Z,7.60
2018-12-09T23:34:21.742Z,7.60
2018-12-09T23:36:50.244Z,7.70
2018-12-09T23:41:46.293Z,7.60
2018-12-09T23:44:14.109Z,7.60
2018-12-09T23:46:41.661Z,7.70
2018-12-09T23:49:09.143Z,7.80
2018-12-09T23:54:04.211Z,7.70
2018-12-09T23:58:59.371Z,7.60
